Springfield, Illinois
Current Conditions -  °F | °C
As of 8:52 AM on Monday 24 Nov 2014 (Local Time) from KSPI Reporting Station
Haze Haze  
Wind Chill: -5°   Ceiling: 1500
Heat Index:   Visibility: 6mi
Dew Point:   Wind: 25mph
Humidity: 96%   Direction: 250°WSW
Pressure: 29.49"   Gusts: 32mph
Location:  39.8°N, 89.64°W
Report Text: KSPI 241452Z 25022G28KT 6SM BR OVC015 02/01 A2949 RMK AO2 PK WND 27034/1417 SLP988 60003 T00170011 53037
Loading
Personal Weather Stations






























Interactive Weather Map New forecast layout! Learn more

10-Day Weather Forecast

Advertisements
Track Severe Weather on mobile